Time;durP1;ratioP1;P1;durP2;ratioP2;P2;SDS_P1;SDS_P2;PMS_P1;PMS_P2;Temp;Humidity;BMP_temperature;BMP_pressure;BME280_temperature;BME280_humidity;BME280_pressure;Samples;Min_cycle;Max_cycle;Signal;HPM_P1;HPM_P2
2022/11/12 00:09:57;;;;;;;1999.90;999.90;;;7.70;99.90;;;;;;6663583;89;20183;-78
2022/11/12 00:19:57;;;;;;;1999.90;999.90;;;7.60;99.90;;;;;;6659944;89;20202;-78
2022/11/12 00:29:58;;;;;;;1999.90;999.90;;;7.60;99.90;;;;;;6660447;89;20205;-79
2022/11/12 00:40:21;;;;;;;1999.90;999.90;;;7.40;99.90;;;;;;6758463;77;20221;-78
2022/11/12 00:50:23;;;;;;;1999.90;999.90;;;7.30;99.90;;;;;;6792991;87;20171;-78
2022/11/12 01:00:24;;;;;;;1999.90;999.90;;;7.30;99.90;;;;;;6782330;87;22512;-77
2022/11/12 01:10:25;;;;;;;1999.90;999.90;;;6.90;99.90;;;;;;6774875;87;20207;-77
2022/11/12 01:20:25;;;;;;;1999.90;999.90;;;6.90;99.90;;;;;;6757279;87;20944;-77
2022/11/12 01:30:26;;;;;;;1999.90;999.90;;;6.90;99.90;;;;;;6687668;88;20264;-78
2022/11/12 01:40:26;;;;;;;1999.90;999.90;;;6.90;99.90;;;;;;6774322;87;20215;-77
2022/11/12 01:50:30;;;;;;;1999.90;999.90;;;6.80;99.90;;;;;;6780389;87;20168;-78
2022/11/12 02:00:31;;;;;;;1999.90;999.90;;;6.80;99.90;;;;;;6782627;87;20812;-78
2022/11/12 02:10:34;;;;;;;1999.90;999.90;;;6.70;99.90;;;;;;6792418;87;20157;-78
2022/11/12 02:20:35;;;;;;;1999.90;999.90;;;6.70;99.90;;;;;;6780122;87;20211;-78
2022/11/12 02:30:45;;;;;;;1999.90;999.90;;;6.80;99.90;;;;;;6779996;87;20795;-78
2022/11/12 02:40:46;;;;;;;1999.90;999.90;;;6.80;99.90;;;;;;6767746;87;20189;-80
2022/11/12 02:50:47;;;;;;;1999.90;999.90;;;6.70;99.90;;;;;;6756016;88;20205;-79
2022/11/12 03:00:48;;;;;;;1999.90;999.90;;;6.70;99.90;;;;;;6714651;88;20230;-81
2022/11/12 03:10:48;;;;;;;1999.90;999.90;;;6.50;99.90;;;;;;6762295;88;20643;-79
2022/11/12 03:20:50;;;;;;;1999.90;999.90;;;6.40;99.90;;;;;;6782300;87;20168;-78
2022/11/12 03:30:57;;;;;;;1999.90;999.90;;;6.30;99.90;;;;;;6794272;87;20176;-78
2022/11/12 03:40:58;;;;;;;1999.90;999.90;;;6.40;99.90;;;;;;6760463;88;20175;-78
2022/11/12 03:50:59;;;;;;;1999.90;999.90;;;6.20;99.90;;;;;;6760765;88;20185;-77
2022/11/12 04:00:59;;;;;;;1999.90;999.90;;;6.10;99.90;;;;;;6748739;88;20889;-80
2022/11/12 04:11:00;;;;;;;1999.90;999.90;;;6.00;99.90;;;;;;6737290;88;20201;-77
2022/11/12 04:31:19;;;;;;;1999.90;999.90;;;5.70;99.90;;;;;;6762770;88;20267;-78
2022/11/12 05:01:58;;;;;;;1999.90;999.90;;;5.60;99.90;;;;;;6770654;87;20760;-78
2022/11/12 05:11:59;;;;;;;1999.90;999.90;;;5.60;99.90;;;;;;6801540;87;20183;-79
2022/11/12 05:22:05;;;;;;;1999.90;999.90;;;5.60;99.90;;;;;;6785304;87;20199;-79
2022/11/12 05:32:06;;;;;;;;;;;5.40;99.90;;;;;;6759223;88;20327;-82
2022/11/12 05:42:07;;;;;;;1999.90;999.90;;;5.30;99.90;;;;;;6759671;88;20133;-79
2022/11/12 05:52:08;;;;;;;1999.90;999.90;;;5.20;99.90;;;;;;6764558;88;20212;-80
2022/11/12 06:02:08;;;;;;;1999.90;999.90;;;5.20;99.90;;;;;;6763539;88;20260;-79
2022/11/12 06:12:09;;;;;;;1999.90;999.90;;;5.20;99.90;;;;;;6758764;88;20354;-81
2022/11/12 06:22:09;;;;;;;1999.90;999.90;;;5.30;99.90;;;;;;6763870;87;20191;-81
2022/11/12 06:32:10;;;;;;;1999.90;999.90;;;5.40;99.90;;;;;;6760383;87;20200;-79
2022/11/12 06:42:10;;;;;;;1999.90;999.90;;;5.50;99.90;;;;;;6760589;87;20200;-79
2022/11/12 06:52:11;;;;;;;1999.90;999.90;;;5.50;99.90;;;;;;6756140;88;20218;-77
2022/11/12 07:02:12;;;;;;;1999.90;999.90;;;5.60;99.90;;;;;;6749964;88;20207;-80
2022/11/12 07:12:13;;;;;;;1999.90;999.90;;;5.60;99.90;;;;;;6758999;88;20200;-80
2022/11/12 07:22:13;;;;;;;1999.90;999.90;;;5.70;99.90;;;;;;6759637;88;20650;-79
2022/11/12 07:32:14;;;;;;;1999.90;999.90;;;5.70;99.90;;;;;;6753978;88;20257;-78
2022/11/12 07:42:14;;;;;;;1999.90;999.90;;;5.80;99.90;;;;;;6759966;88;20372;-77
2022/11/12 07:52:15;;;;;;;1999.90;999.90;;;6.00;99.90;;;;;;6759687;87;20175;-77
2022/11/12 08:02:15;;;;;;;1999.90;999.90;;;6.20;99.90;;;;;;6775765;87;20224;-78
2022/11/12 08:12:16;;;;;;;1999.90;999.90;;;6.50;99.90;;;;;;6779407;87;20268;-82
2022/11/12 08:22:16;;;;;;;1999.90;999.90;;;7.00;99.90;;;;;;6777876;87;20708;-78
2022/11/12 08:32:17;;;;;;;1999.90;999.90;;;7.20;99.90;;;;;;6777057;87;20318;-78
2022/11/12 08:42:17;;;;;;;1999.90;999.90;;;7.60;99.90;;;;;;6774537;87;20259;-79
2022/11/12 08:52:18;;;;;;;1999.90;999.90;;;7.60;99.90;;;;;;6773297;87;20234;-78
2022/11/12 09:02:18;;;;;;;1999.90;999.90;;;7.90;99.90;;;;;;6759759;87;20233;-78
2022/11/12 09:12:19;;;;;;;1999.90;999.90;;;8.20;99.90;;;;;;6750842;87;20332;-78
2022/11/12 09:22:19;;;;;;;1999.90;999.90;;;8.60;99.90;;;;;;6737437;87;20302;-77
2022/11/12 09:32:20;;;;;;;1999.90;999.90;;;9.10;99.90;;;;;;6735205;87;21010;-78
2022/11/12 09:42:21;;;;;;;1999.90;999.90;;;9.60;99.90;;;;;;6733399;87;20219;-79
2022/11/12 09:52:29;;;;;;;1999.90;999.90;;;9.70;99.90;;;;;;6751599;87;20259;-77
2022/11/12 10:02:51;;;;;;;1999.90;999.90;;;9.90;99.90;;;;;;6769203;87;20212;-77
2022/11/12 10:13:17;;;;;;;1999.90;999.90;;;10.50;99.90;;;;;;6747582;87;20202;-77
2022/11/12 10:23:35;;;;;;;1999.90;999.90;;;10.80;99.90;;;;;;6755752;87;20172;-78
2022/11/12 10:33:36;;;;;;;1999.90;999.90;;;11.20;99.90;;;;;;6746596;87;20346;-78
2022/11/12 10:43:36;;;;;;;1999.90;999.90;;;11.00;99.90;;;;;;6727516;87;20414;-77
2022/11/12 10:53:39;;;;;;;1999.90;999.90;;;11.40;99.90;;;;;;6753917;87;20229;-76
2022/11/12 11:04:17;;;;;;;1999.90;999.90;;;11.60;99.90;;;;;;6768899;87;20220;-78
2022/11/12 11:14:33;;;;;;;1999.90;999.90;;;11.90;99.90;;;;;;6766243;87;20655;-77
2022/11/12 11:24:45;;;;;;;1999.90;999.90;;;12.20;99.90;;;;;;6752982;88;20201;-78
2022/11/12 11:34:52;;;;;;;1999.90;999.90;;;12.80;99.90;;;;;;6755270;88;20198;-79
2022/11/12 11:45:08;;;;;;;1999.90;999.90;;;12.70;99.90;;;;;;6709701;87;20215;-78
2022/11/12 11:55:44;;;;;;;;;;;13.40;99.90;;;;;;6753055;88;20641;-77
2022/11/12 12:05:53;;;;;;;1999.90;999.90;;;13.60;99.90;;;;;;6723883;87;20791;-78
2022/11/12 12:16:49;;;;;;;1999.90;999.90;;;14.10;99.90;;;;;;6752950;87;20193;-79
2022/11/12 12:27:24;;;;;;;1999.90;999.90;;;13.80;99.90;;;;;;6740185;87;20326;-78
2022/11/12 12:57:36;;;;;;;1999.90;999.90;;;15.50;99.90;;;;;;6736454;88;20291;-80
2022/11/12 13:07:41;;;;;;;1999.90;999.90;;;16.10;99.90;;;;;;6733718;88;20190;-80
2022/11/12 13:27:45;;;;;;;1999.90;999.90;;;17.50;99.90;;;;;;6763966;88;20192;-83
2022/11/12 13:47:50;;;;;;;1999.90;999.90;;;18.40;99.90;;;;;;6749455;88;20210;-82
2022/11/12 13:57:53;;;;;;;1999.90;999.90;;;17.90;99.90;;;;;;6749675;88;20158;-81
2022/11/12 14:08:24;;;;;;;1999.90;999.90;;;17.20;99.90;;;;;;6746445;88;20279;-79
2022/11/12 14:18:30;;;;;;;1999.90;999.90;;;16.60;99.90;;;;;;6732374;88;20161;-80
2022/11/12 14:28:34;;;;;;;1999.90;999.90;;;16.40;99.90;;;;;;6732463;88;20175;-79
2022/11/12 14:38:41;;;;;;;1999.90;999.90;;;15.50;99.90;;;;;;6727092;88;20191;-80
2022/11/12 14:48:53;;;;;;;1999.90;999.90;;;15.40;99.90;;;;;;6661810;89;20181;-80
2022/11/12 14:58:55;;;;;;;1999.90;999.90;;;15.10;99.90;;;;;;6662806;89;20228;-81
2022/11/12 15:08:58;;;;;;;1999.90;999.90;;;14.90;99.90;;;;;;6664536;88;20705;-79
2022/11/12 15:19:19;;;;;;;1999.90;999.90;;;14.20;99.90;;;;;;6724010;88;20171;-80
2022/11/12 15:29:23;;;;;;;1999.90;999.90;;;13.60;99.90;;;;;;6732457;88;20163;-79
2022/11/12 15:39:26;;;;;;;1999.90;999.90;;;13.30;99.90;;;;;;6641175;88;20171;-79
2022/11/12 15:49:26;;;;;;;1999.90;999.90;;;12.90;99.90;;;;;;6656767;88;20231;-80
2022/11/12 15:59:28;;;;;;;1999.90;999.90;;;12.60;99.90;;;;;;6644481;89;20194;-79
2022/11/12 16:19:33;;;;;;;1999.90;999.90;;;12.10;99.90;;;;;;6649366;88;20197;-80
2022/11/12 16:29:34;;;;;;;1999.90;999.90;;;11.80;99.90;;;;;;6650931;89;20190;-79
2022/11/12 16:39:35;;;;;;;1999.90;999.90;;;11.50;99.90;;;;;;6653926;88;20621;-81
2022/11/12 16:49:35;;;;;;;1999.90;999.90;;;11.30;99.90;;;;;;6651255;88;20206;-81
2022/11/12 16:59:36;;;;;;;1999.90;999.90;;;11.20;99.90;;;;;;6647207;88;20200;-79
2022/11/12 17:09:36;;;;;;;1999.90;999.90;;;11.00;99.90;;;;;;6642159;89;20232;-79
2022/11/12 17:19:37;;;;;;;1999.90;999.90;;;10.90;99.90;;;;;;6646648;89;20189;-79
2022/11/12 17:29:38;;;;;;;1999.90;999.90;;;10.70;99.90;;;;;;6650452;89;21060;-81
2022/11/12 17:39:38;;;;;;;1999.90;999.90;;;10.60;99.90;;;;;;6647186;89;20586;-78
2022/11/12 17:49:39;;;;;;;1999.90;999.90;;;10.50;99.90;;;;;;6645308;89;20204;-79
2022/11/12 17:59:39;;;;;;;1999.90;999.90;;;10.40;99.90;;;;;;6646223;89;20359;-79
2022/11/12 18:09:40;;;;;;;1999.90;999.90;;;10.20;99.90;;;;;;6645087;89;20216;-80
2022/11/12 18:19:41;;;;;;;1999.90;999.90;;;10.10;99.90;;;;;;6660377;89;20233;-79
2022/11/12 18:29:41;;;;;;;1999.90;999.90;;;10.10;99.90;;;;;;6661342;89;20290;-80
2022/11/12 18:49:45;;;;;;;1999.90;999.90;;;10.00;99.90;;;;;;6680061;88;20364;-78
2022/11/12 18:59:46;;;;;;;1999.90;999.90;;;9.90;99.90;;;;;;6682484;88;20254;-78
2022/11/12 19:09:47;;;;;;;1999.90;999.90;;;9.90;99.90;;;;;;6672885;89;20196;-77
2022/11/12 19:19:47;;;;;;;1999.90;999.90;;;9.90;99.90;;;;;;6670400;88;20200;-79
2022/11/12 19:29:49;;;;;;;1999.90;999.90;;;9.80;99.90;;;;;;6670492;88;20266;-79
2022/11/12 19:39:49;;;;;;;1999.90;999.90;;;9.80;99.90;;;;;;6670908;89;20192;-79
2022/11/12 19:49:50;;;;;;;1999.90;999.90;;;9.80;99.90;;;;;;6678751;88;20334;-79
2022/11/12 19:59:50;;;;;;;1999.90;999.90;;;9.70;99.90;;;;;;6677427;88;20207;-78
2022/11/12 20:09:51;;;;;;;1999.90;999.90;;;9.50;99.90;;;;;;6667212;89;20189;-80
2022/11/12 20:19:51;;;;;;;1999.90;999.90;;;9.40;99.90;;;;;;6680973;88;20187;-78
2022/11/12 20:29:52;;;;;;;1999.90;999.90;;;9.10;99.90;;;;;;6667282;89;20233;-79
2022/11/12 20:39:52;;;;;;;1999.90;999.90;;;9.00;99.90;;;;;;6669085;89;20515;-79
2022/11/12 20:49:53;;;;;;;1999.90;999.90;;;8.90;99.90;;;;;;6669235;88;20760;-79
2022/11/12 20:59:53;;;;;;;1999.90;999.90;;;8.80;99.90;;;;;;6676483;88;20199;-79
2022/11/12 21:09:54;;;;;;;1999.90;999.90;;;8.60;99.90;;;;;;6687608;88;20709;-78
2022/11/12 21:19:55;;;;;;;1999.90;999.90;;;8.50;99.90;;;;;;6673455;88;20354;-80
2022/11/12 21:29:55;;;;;;;1999.90;999.90;;;8.40;99.90;;;;;;6663171;89;20329;-79
2022/11/12 21:39:56;;;;;;;1999.90;999.90;;;8.30;99.90;;;;;;6664673;89;20247;-78
2022/11/12 21:49:56;;;;;;;1999.90;999.90;;;8.30;99.90;;;;;;6675755;88;20736;-80
2022/11/12 21:59:57;;;;;;;1999.90;999.90;;;8.20;99.90;;;;;;6664870;89;20183;-80
2022/11/12 22:09:57;;;;;;;1999.90;999.90;;;8.10;99.90;;;;;;6673512;89;20225;-80
2022/11/12 22:19:58;;;;;;;1999.90;999.90;;;8.00;99.90;;;;;;6673399;89;20214;-80
2022/11/12 22:29:58;;;;;;;1999.90;999.90;;;8.00;99.90;;;;;;6673299;89;20221;-81
2022/11/12 22:39:59;;;;;;;1999.90;999.90;;;7.90;99.90;;;;;;6677400;89;20177;-79
2022/11/12 22:49:59;;;;;;;1999.90;999.90;;;7.80;99.90;;;;;;6673377;89;20222;-81
2022/11/12 23:00:00;;;;;;;1999.90;999.90;;;7.80;99.90;;;;;;6676580;89;20231;-81
2022/11/12 23:10:01;;;;;;;1999.90;999.90;;;7.70;99.90;;;;;;6676362;89;20164;-79
2022/11/12 23:20:01;;;;;;;1999.90;999.90;;;7.70;99.90;;;;;;6674404;89;20173;-80
2022/11/12 23:30:04;;;;;;;1999.90;999.90;;;7.60;99.90;;;;;;6679066;89;20223;-81
2022/11/12 23:40:05;;;;;;;1999.90;999.90;;;7.50;99.90;;;;;;6691638;88;20846;-80
2022/11/12 23:50:06;;;;;;;1999.90;999.90;;;7.40;99.90;;;;;;6694986;89;20222;-78
